createdAt,value
2022-12-20T06:30:47.237Z,-5.4
2022-12-20T06:33:35.360Z,-11.1
2022-12-20T06:35:53.603Z,-13.9
2022-12-20T06:38:12.283Z,-12.9
2022-12-20T06:40:31.644Z,-17.4
2022-12-20T06:42:51.226Z,-18.1
2022-12-20T06:45:10.494Z,-15.3
2022-12-20T06:48:14.121Z,-9.3
2022-12-20T06:50:32.739Z,-25.7
2022-12-20T06:52:50.644Z,-8.5
2022-12-20T06:55:23.046Z,-7.2
2022-12-20T06:57:40.964Z,-5.1
2022-12-20T07:01:38.692Z,-7.6
2022-12-20T07:03:48.715Z,-6.8
2022-12-20T10:11:09.865Z,18.3
2022-12-20T10:13:28.953Z,17.2
2022-12-20T10:15:48.221Z,14.1
2022-12-20T10:18:07.362Z,13.8
2022-12-20T10:20:26.486Z,16.9
2022-12-20T10:22:45.546Z,17.5
2022-12-20T10:25:04.643Z,17.5
2022-12-20T10:27:23.068Z,15.8
2022-12-20T10:29:41.797Z,13.3
2022-12-20T10:31:59.084Z,12.3
2022-12-20T10:34:17.560Z,8.5
2022-12-20T10:36:36.638Z,10.6
2022-12-20T10:38:55.797Z,13.8
2022-12-20T10:41:39.288Z,9.6
2022-12-20T10:43:57.145Z,6.8
2022-12-20T10:46:15.168Z,4.8
2022-12-20T10:48:33.639Z,5.4
2022-12-20T10:50:52.220Z,7.2
2022-12-20T10:53:10.459Z,9.4
2022-12-20T10:55:28.347Z,8.9
2022-12-20T10:57:45.689Z,9.6
2022-12-20T11:00:03.244Z,7.1
2022-12-20T11:02:20.791Z,3.2
2022-12-20T11:04:38.624Z,0.2
2022-12-20T11:06:56.748Z,-3.1
2022-12-20T11:09:34.880Z,-1.9
2022-12-20T11:11:53.282Z,-1.4
2022-12-20T11:14:11.244Z,-2.1
2022-12-20T11:16:29.032Z,-1.9
2022-12-20T11:18:46.462Z,-2
2022-12-20T11:21:04.312Z,-2.6
2022-12-20T11:23:21.483Z,-2.8
2022-12-20T11:25:39.083Z,-4.1
2022-12-20T11:27:56.516Z,-3.3
2022-12-20T11:32:31.494Z,-4.1
2022-12-20T11:34:48.957Z,-3.9
2022-12-20T11:37:06.381Z,-4.2
2022-12-20T11:39:24.001Z,-4.1
2022-12-20T11:41:41.576Z,-4.4
2022-12-20T11:44:26.831Z,-4.2
2022-12-20T11:46:36.230Z,-2.8
2022-12-20T11:48:54.272Z,-2
2022-12-20T11:51:15.541Z,-0.4
2022-12-20T11:53:29.353Z,0.9
2022-12-20T11:55:46.569Z,0.8
2022-12-20T11:58:22.541Z,-0.5
2022-12-20T12:00:38.873Z,-6.1
2022-12-20T12:02:58.517Z,-1.4
2022-12-20T12:05:12.639Z,-0.4
2022-12-20T12:07:30.185Z,0.9
2022-12-20T12:09:48.250Z,-0.4
2022-12-20T12:12:37.155Z,-0.3
2022-12-20T12:14:55.333Z,-0.3
2022-12-20T12:17:13.150Z,0.8
2022-12-20T12:19:30.392Z,0.2
2022-12-20T12:21:48.297Z,-1.1
2022-12-20T12:24:03.581Z,-2.9
2022-12-20T12:26:20.286Z,-3.9
2022-12-20T12:28:36.409Z,-5
2022-12-20T12:30:52.719Z,-4.1
2022-12-20T12:33:09.042Z,-4.4
2022-12-20T12:35:25.268Z,-4.4
2022-12-20T12:37:41.599Z,-5.8
2022-12-20T12:39:57.310Z,-4.8
2022-12-20T12:42:13.314Z,-4.8
2022-12-20T12:44:29.365Z,-3.9
2022-12-20T12:46:45.003Z,-3
2022-12-20T12:49:00.934Z,-3
2022-12-20T12:51:16.571Z,-2.3
2022-12-20T12:53:32.355Z,-1.6
2022-12-20T12:55:47.921Z,-1.7
2022-12-20T12:58:29.753Z,-1.8
2022-12-20T13:00:45.524Z,-1.4
2022-12-20T13:03:01.517Z,-1.6
2022-12-20T13:05:20.786Z,-0.4
2022-12-20T13:07:32.548Z,-2.2
2022-12-20T13:09:48.171Z,-1.3
2022-12-20T13:12:08.294Z,-1.7
2022-12-20T13:14:20.047Z,-2.3
2022-12-20T13:17:09.833Z,-0.5
2022-12-20T13:19:13.557Z,-2.1
2022-12-20T13:21:29.305Z,-1.6
2022-12-20T13:23:44.937Z,-2.5
2022-12-20T13:26:00.556Z,-1.9
2022-12-20T13:28:16.401Z,-2.4
2022-12-20T13:30:31.924Z,-2.1
2022-12-20T13:32:47.682Z,-2.6
2022-12-20T13:35:03.119Z,-2.8
2022-12-20T13:37:18.819Z,-3.1
2022-12-20T13:39:34.502Z,-2.8
2022-12-20T13:41:50.211Z,-2.9
2022-12-20T13:44:05.844Z,-2.9
2022-12-20T13:46:21.534Z,-3
2022-12-20T13:48:36.919Z,-3.1
2022-12-20T13:50:52.637Z,-2.9
2022-12-20T13:53:08.290Z,-3.3
2022-12-20T13:55:23.815Z,-3.1
2022-12-20T13:57:39.452Z,-2.5
2022-12-20T13:59:58.530Z,-2.8
2022-12-20T14:02:10.877Z,-3
2022-12-20T14:04:26.329Z,-2.4
2022-12-20T14:06:41.916Z,-2.9
2022-12-20T14:08:57.560Z,-3.9
2022-12-20T14:11:13.117Z,-3.3
2022-12-20T14:13:28.462Z,-2.8
2022-12-20T14:15:43.842Z,3.3
2022-12-20T14:17:58.936Z,-4.5
2022-12-20T14:20:14.516Z,2.8
2022-12-20T14:22:30.212Z,-4.6
2022-12-20T14:24:45.757Z,-4.5
2022-12-20T14:27:00.863Z,-3.7
2022-12-20T14:29:15.734Z,2.8
2022-12-20T14:31:30.678Z,2.4
2022-12-20T14:33:45.693Z,2.1
2022-12-20T14:36:00.268Z,2.9
2022-12-20T14:38:15.060Z,1.9
2022-12-20T14:40:30.645Z,1.9
2022-12-20T14:42:46.543Z,-5.6
2022-12-20T14:45:01.551Z,-4.4
2022-12-20T14:47:17.209Z,1.3
2022-12-20T14:49:32.889Z,-5.1
2022-12-20T14:51:48.467Z,-4.1
2022-12-20T14:54:04.547Z,-4.3
2022-12-20T14:56:45.930Z,-3.6
2022-12-20T14:59:01.629Z,-3.9
2022-12-20T15:01:16.456Z,1.1
2022-12-20T15:03:32.238Z,-3.9
2022-12-20T15:05:47.674Z,-3.7
2022-12-20T15:08:02.803Z,-4.1
2022-12-20T15:10:18.368Z,0.8
2022-12-20T15:12:37.527Z,-4.8
2022-12-20T15:14:48.277Z,0.6
2022-12-20T15:17:14.968Z,1.3
2022-12-20T15:19:30.601Z,1.4
2022-12-20T15:21:44.732Z,1.3
2022-12-20T15:23:58.911Z,1
2022-12-20T15:26:14.299Z,0.6
2022-12-20T15:28:29.133Z,0.8
2022-12-20T15:30:43.980Z,1.3
2022-12-20T15:32:59.663Z,0.6
2022-12-20T15:35:14.735Z,-5.1
2022-12-20T15:37:29.501Z,0.6
2022-12-20T15:39:59.826Z,0.9
2022-12-20T15:42:15.553Z,-5.3
2022-12-20T15:44:31.632Z,-4.6
2022-12-20T15:46:46.939Z,-5.5
2022-12-20T15:49:02.483Z,-4.6
2022-12-20T15:51:17.932Z,-5.3
2022-12-20T15:53:33.477Z,-5
2022-12-20T15:55:49.093Z,-5.2
2022-12-20T15:58:04.621Z,-5
2022-12-20T16:00:47.690Z,-4.8
2022-12-20T16:03:03.344Z,-3.9
2022-12-20T16:05:18.833Z,-5.2
2022-12-20T16:07:34.425Z,-4.9
2022-12-20T16:09:49.931Z,-5.1
2022-12-20T16:12:05.511Z,-5.4
2022-12-20T16:14:21.023Z,-5.4
2022-12-20T16:16:36.689Z,-5.4
2022-12-20T16:18:52.178Z,-5.4
2022-12-20T16:21:07.793Z,-5.4
2022-12-20T16:23:23.328Z,-5.1
2022-12-20T16:25:38.853Z,-5.4
2022-12-20T16:27:54.445Z,-5.3
2022-12-20T16:30:10.215Z,-5.6
2022-12-20T16:32:25.690Z,-4.9
2022-12-20T16:34:41.137Z,-5.9
2022-12-20T16:36:57.377Z,-6.1
2022-12-20T16:39:12.268Z,-5.7
2022-12-20T16:41:27.803Z,-5.4
2022-12-20T16:43:43.391Z,-5.9
2022-12-20T16:45:58.950Z,-5.9
2022-12-20T16:48:14.391Z,-5.3
2022-12-20T16:50:30.009Z,-5.8
2022-12-20T16:52:45.589Z,-5.6
2022-12-20T16:55:45.325Z,-5.9
2022-12-20T16:58:00.948Z,-5.3
2022-12-20T17:00:36.471Z,-5.6
2022-12-20T17:02:52.169Z,-5
2022-12-20T17:05:07.640Z,-5.7
2022-12-20T17:07:23.233Z,-5.5
2022-12-20T17:10:40.947Z,-5.5
2022-12-20T17:12:56.424Z,-5.5
2022-12-20T17:15:12.039Z,-5.9
2022-12-20T17:17:27.556Z,-6.1
2022-12-20T17:19:43.174Z,-6.2
2022-12-20T17:22:28.713Z,-6.3
2022-12-20T17:25:00.660Z,-4.9
2022-12-20T17:27:16.747Z,-5.3
2022-12-20T17:29:32.269Z,-6.4
2022-12-20T17:31:47.878Z,-6.4
2022-12-20T17:34:03.321Z,-6
2022-12-20T17:36:18.871Z,-6.1
2022-12-20T17:38:34.659Z,-5.9
2022-12-20T17:40:50.107Z,-5.8
2022-12-20T17:43:05.651Z,-5.9
2022-12-20T17:45:21.230Z,-6.3
2022-12-20T17:47:36.894Z,-5.5
2022-12-20T17:49:52.371Z,-5.4
2022-12-20T17:52:07.888Z,-6
2022-12-20T17:54:23.434Z,-6.3
2022-12-20T17:56:39.016Z,-5.8
2022-12-20T17:58:54.490Z,-5.8
2022-12-20T18:01:10.128Z,-6
2022-12-20T18:04:02.687Z,-5.8
2022-12-20T18:06:08.212Z,-5.6
2022-12-20T18:08:22.551Z,-6.7
2022-12-20T18:10:38.054Z,-6.5
2022-12-20T18:12:53.619Z,-6.4
2022-12-20T18:15:09.186Z,-6
2022-12-20T18:17:24.777Z,-6.6
2022-12-20T18:19:40.254Z,-6
2022-12-20T18:21:55.933Z,-6.3
2022-12-20T18:24:11.563Z,-5.9
2022-12-20T18:26:27.076Z,-5.4
2022-12-20T18:28:42.590Z,-6.1
2022-12-20T18:30:58.314Z,-6.2
2022-12-20T18:33:13.690Z,-5.6
2022-12-20T18:35:29.232Z,-6.2
2022-12-20T18:37:44.710Z,-6.1
2022-12-20T18:40:00.259Z,-6.6
2022-12-20T18:42:15.857Z,-6.6
2022-12-20T18:44:31.401Z,-6.2
2022-12-20T18:46:47.204Z,-6.3
2022-12-20T18:49:02.893Z,-7
2022-12-20T18:51:18.527Z,-7.1
2022-12-20T18:53:34.309Z,-6.9
2022-12-20T18:55:50.692Z,-7.1
2022-12-20T18:58:05.811Z,-7.1
2022-12-20T19:00:21.400Z,-7.1
2022-12-20T19:02:37.412Z,-7.1
2022-12-20T19:04:52.865Z,-7.6
2022-12-20T19:07:08.481Z,-7.3
2022-12-20T19:09:24.238Z,-7.4
2022-12-20T19:11:39.866Z,-6.8
2022-12-20T19:13:55.537Z,-7.6
2022-12-20T19:16:11.596Z,-7.4
2022-12-20T19:18:27.063Z,-7
2022-12-20T19:20:42.650Z,-7.8
2022-12-20T19:22:58.333Z,-6.8
2022-12-20T19:25:14.145Z,-7
2022-12-20T19:27:29.822Z,-7.3
2022-12-20T19:29:45.428Z,-7.6
2022-12-20T19:32:01.194Z,-7.1
2022-12-20T19:34:16.914Z,-7.3
2022-12-20T19:37:21.875Z,-7.6
2022-12-20T19:39:37.580Z,-6.9
2022-12-20T19:42:22.743Z,-7.5
2022-12-20T19:44:26.665Z,-6.7
2022-12-20T19:46:42.497Z,-6.9
2022-12-20T19:48:58.119Z,-6.8
2022-12-20T19:51:13.773Z,-6.9
2022-12-20T19:53:29.457Z,-7
2022-12-20T19:55:45.116Z,-7
2022-12-20T19:58:00.723Z,-7.8
2022-12-20T20:00:17.292Z,-7.1
2022-12-20T20:02:32.388Z,-5.8
2022-12-20T20:04:47.835Z,-7.8
2022-12-20T20:07:03.545Z,-6.7
2022-12-20T20:09:19.211Z,-7.4
2022-12-20T20:11:35.290Z,-7.6
2022-12-20T20:13:50.769Z,-7.3
2022-12-20T20:16:06.430Z,-7.4
2022-12-20T20:18:22.018Z,-7.1
2022-12-20T20:20:37.681Z,-7.2
2022-12-20T20:22:52.789Z,-7.1
2022-12-20T20:25:08.291Z,-2.9
2022-12-20T20:27:24.046Z,-8.5
2022-12-20T20:29:39.715Z,-7.8
2022-12-20T20:31:55.442Z,-6.9
2022-12-20T20:34:11.196Z,-7.9
2022-12-20T20:36:26.857Z,-7.1
2022-12-20T20:38:42.591Z,-6.5
2022-12-20T20:40:58.286Z,-7.2
2022-12-20T20:43:13.913Z,-6.9
2022-12-20T20:45:29.630Z,-8.1
2022-12-20T20:47:45.399Z,-7
2022-12-20T20:50:00.983Z,-7.4
2022-12-20T20:52:16.700Z,-7.9
2022-12-20T20:54:32.392Z,-7.4
2022-12-20T20:56:48.808Z,-6.8
2022-12-20T20:59:07.104Z,-8.2
2022-12-20T21:01:18.847Z,-7.2
2022-12-20T21:03:33.619Z,-2.3
2022-12-20T21:07:07.862Z,-2.2
2022-12-20T21:09:23.644Z,-8
2022-12-20T21:11:39.647Z,-8.1
2022-12-20T21:13:54.747Z,-6.9
2022-12-20T21:16:40.560Z,-2.7
2022-12-20T21:18:56.256Z,-8.3
2022-12-20T21:21:11.944Z,-9.1
2022-12-20T21:23:27.920Z,-8.2
2022-12-20T21:25:43.683Z,-7.8
2022-12-20T21:27:59.018Z,-7.6
2022-12-20T21:30:14.559Z,-2.3
2022-12-20T21:32:30.491Z,-9
2022-12-20T21:34:46.185Z,-7.4
2022-12-20T21:37:02.369Z,-8.1
2022-12-20T21:39:17.771Z,-8.2
2022-12-20T21:41:33.476Z,-7.4
2022-12-20T21:43:49.412Z,-8.1
2022-12-20T21:46:05.018Z,-7.7
2022-12-20T21:48:20.478Z,-6.9
2022-12-20T21:50:35.295Z,-2.6
2022-12-20T21:52:51.118Z,-2.5
2022-12-20T21:55:06.264Z,-8.6
2022-12-20T21:57:21.348Z,-2.9
2022-12-20T21:59:36.955Z,-3.1
2022-12-20T22:01:53.094Z,-9.6
2022-12-20T22:04:08.664Z,-8.5
2022-12-20T22:06:23.876Z,-8.1
2022-12-20T22:08:38.827Z,-2.8
2022-12-20T22:10:54.526Z,-2.7
2022-12-20T22:15:24.669Z,-2.8
2022-12-20T22:17:39.635Z,-2.5
2022-12-20T22:19:54.532Z,-2.7
2022-12-20T22:22:09.772Z,-2.6
2022-12-20T22:24:24.383Z,-2.3
2022-12-20T22:26:38.706Z,-2.5
2022-12-20T22:28:54.310Z,-2.4
2022-12-20T22:31:09.938Z,-2.8
2022-12-20T22:33:24.258Z,-2.6
2022-12-20T22:35:39.099Z,-2.7
2022-12-20T22:37:54.915Z,-2.8
2022-12-20T22:40:10.107Z,-9.8
2022-12-20T22:42:25.220Z,-3.1
2022-12-20T22:44:39.938Z,-2.8
2022-12-20T22:48:14.999Z,-3.6
2022-12-20T22:50:17.137Z,-8.7
2022-12-20T22:52:31.626Z,-3.1
2022-12-20T22:54:46.408Z,-3.2
2022-12-20T22:57:01.983Z,-3.3
2022-12-20T22:59:17.149Z,-9.1
2022-12-20T23:01:32.086Z,-3.3
2022-12-20T23:03:47.040Z,-2.6
2022-12-20T23:06:01.696Z,-3.1
2022-12-20T23:08:17.475Z,-3.4
2022-12-20T23:10:32.456Z,-9.5
2022-12-20T23:12:47.293Z,-3.4
2022-12-20T23:15:50.597Z,-3.2
2022-12-20T23:18:05.445Z,-2.8
2022-12-20T23:20:20.175Z,-3
2022-12-20T23:22:35.008Z,-2.9
2022-12-20T23:24:49.841Z,-2.8
2022-12-20T23:27:04.830Z,-2.6
2022-12-20T23:29:19.597Z,-2.7
2022-12-20T23:31:34.360Z,-2.9
2022-12-20T23:33:50.222Z,-2.9
2022-12-20T23:36:05.093Z,-9
2022-12-20T23:38:19.893Z,-3.3
2022-12-20T23:40:34.805Z,-3.5
2022-12-20T23:42:49.699Z,-3.1
2022-12-20T23:45:04.414Z,-3
2022-12-20T23:47:19.304Z,-2.6
2022-12-20T23:49:34.180Z,-2.8
2022-12-20T23:51:49.045Z,-3
2022-12-20T23:54:04.818Z,-2.9
2022-12-20T23:56:19.662Z,-10.4
2022-12-20T23:58:34.494Z,-3.3
